createdAt,value
2024-01-07T00:02:19.682Z,68.04
2024-01-07T00:04:46.573Z,68.31
2024-01-07T00:07:13.587Z,69.20
2024-01-07T00:09:40.346Z,69.49
2024-01-07T00:12:07.320Z,68.98
2024-01-07T00:14:34.035Z,69.34
2024-01-07T00:17:00.934Z,67.46
2024-01-07T00:19:27.588Z,68.06
2024-01-07T00:21:54.387Z,68.32
2024-01-07T00:24:21.171Z,69.03
2024-01-07T00:26:47.949Z,68.95
2024-01-07T00:29:14.671Z,68.41
2024-01-07T00:31:41.684Z,68.32
2024-01-07T00:34:08.584Z,68.07
2024-01-07T00:36:35.610Z,69.06
2024-01-07T00:39:02.180Z,68.96
2024-01-07T00:41:29.008Z,68.92
2024-01-07T00:43:55.715Z,68.26
2024-01-07T00:46:22.438Z,69.95
2024-01-07T00:48:49.578Z,69.03
2024-01-07T00:51:16.375Z,69.37
2024-01-07T00:53:43.217Z,68.83
2024-01-07T00:56:10.094Z,69.30
2024-01-07T00:58:37.883Z,69.10
2024-01-07T01:03:32.774Z,70.75
2024-01-07T01:05:59.788Z,68.29
2024-01-07T01:08:26.655Z,68.39
2024-01-07T01:10:53.342Z,67.05
2024-01-07T01:13:20.161Z,68.66
2024-01-07T01:15:47.516Z,67.70
2024-01-07T01:18:14.728Z,70.06
2024-01-07T01:20:41.539Z,69.43
2024-01-07T01:23:08.232Z,69.84
2024-01-07T01:25:37.000Z,68.39
2024-01-07T01:28:04.137Z,69.06
2024-01-07T01:30:33.101Z,70.03
2024-01-07T01:33:00.177Z,70.86
2024-01-07T01:35:27.105Z,69.64
2024-01-07T01:37:55.674Z,68.64
2024-01-07T01:40:22.512Z,69.64
2024-01-07T01:42:49.427Z,70.13
2024-01-07T01:45:16.295Z,69.66
2024-01-07T01:47:43.829Z,68.19
2024-01-07T01:50:12.306Z,68.73
2024-01-07T01:52:39.311Z,68.66
2024-01-07T01:55:06.380Z,68.04
2024-01-07T01:57:38.254Z,68.01
2024-01-07T02:00:06.335Z,67.95
2024-01-07T02:02:35.636Z,68.42
2024-01-07T02:05:04.449Z,67.38
2024-01-07T02:07:32.210Z,67.42
2024-01-07T02:09:59.302Z,67.93
2024-01-07T02:12:26.196Z,69.36
2024-01-07T02:14:52.785Z,69.29
2024-01-07T02:17:20.987Z,68.99
2024-01-07T02:19:48.708Z,68.09
2024-01-07T02:22:15.742Z,66.13
2024-01-07T02:24:42.435Z,66.59
2024-01-07T02:27:09.143Z,67.86
2024-01-07T02:29:35.921Z,67.41
2024-01-07T02:32:02.703Z,67.85
2024-01-07T02:34:30.691Z,67.29
2024-01-07T02:36:57.670Z,68.58
2024-01-07T02:39:24.342Z,67.74
2024-01-07T02:41:51.518Z,67.53
2024-01-07T02:44:18.304Z,67.83
2024-01-07T02:46:47.307Z,67.51
2024-01-07T02:49:14.849Z,66.71
2024-01-07T02:51:42.095Z,67.02
2024-01-07T02:54:08.966Z,65.52
2024-01-07T02:56:35.738Z,66.74
2024-01-07T02:59:02.599Z,66.47
2024-01-07T03:01:29.603Z,67.79
2024-01-07T03:03:56.398Z,66.02
2024-01-07T03:06:23.067Z,67.14
2024-01-07T03:08:50.720Z,68.76
2024-01-07T03:11:17.535Z,67.93
2024-01-07T03:13:44.284Z,68.91
2024-01-07T03:16:20.667Z,68.01
2024-01-07T03:18:47.519Z,68.48
2024-01-07T03:21:21.395Z,68.35
2024-01-07T03:23:49.078Z,68.25
2024-01-07T03:26:18.465Z,67.72
2024-01-07T03:28:45.827Z,68.01
2024-01-07T03:31:15.139Z,69.25
2024-01-07T03:33:43.400Z,69.84
2024-01-07T03:36:11.086Z,70.00
2024-01-07T03:38:38.361Z,69.12
2024-01-07T03:41:05.477Z,69.55
2024-01-07T03:43:32.580Z,68.69
2024-01-07T03:45:59.604Z,68.45
2024-01-07T03:48:27.837Z,69.07
2024-01-07T03:50:54.764Z,67.07
2024-01-07T03:53:21.531Z,68.39
2024-01-07T03:55:48.247Z,69.44
2024-01-07T03:58:15.068Z,67.88
2024-01-07T04:00:41.910Z,69.02
2024-01-07T04:03:09.626Z,67.33
2024-01-07T04:05:36.577Z,67.65
2024-01-07T04:08:03.496Z,68.92
2024-01-07T04:10:30.305Z,68.29
2024-01-07T04:12:57.144Z,67.29
2024-01-07T04:15:25.410Z,68.61
2024-01-07T04:17:52.365Z,68.96
2024-01-07T04:20:19.225Z,68.44
2024-01-07T04:22:45.948Z,68.44
2024-01-07T04:25:13.416Z,69.00
2024-01-07T04:27:40.181Z,68.52
2024-01-07T04:30:07.745Z,67.66
2024-01-07T04:32:34.884Z,67.29
2024-01-07T04:35:01.935Z,68.42
2024-01-07T04:37:29.420Z,68.49
2024-01-07T04:39:56.270Z,67.72
2024-01-07T04:42:23.030Z,65.91
2024-01-07T04:44:49.740Z,67.10
2024-01-07T04:47:31.730Z,66.77
2024-01-07T04:49:59.391Z,67.38
2024-01-07T04:52:26.794Z,68.04
2024-01-07T04:54:54.659Z,68.38
2024-01-07T04:57:22.067Z,66.91
2024-01-07T04:59:50.332Z,67.33
2024-01-07T05:02:17.228Z,67.75
2024-01-07T05:04:44.263Z,66.67
2024-01-07T05:07:11.501Z,66.63
2024-01-07T05:09:38.525Z,67.91
2024-01-07T05:12:05.289Z,68.12
2024-01-07T05:14:34.999Z,67.84
2024-01-07T05:17:01.759Z,67.17
2024-01-07T05:19:29.313Z,67.40
2024-01-07T05:21:56.334Z,67.57
2024-01-07T05:24:23.057Z,67.61
2024-01-07T05:26:50.044Z,66.62
2024-01-07T05:29:16.789Z,66.52
2024-01-07T05:31:43.852Z,65.44
2024-01-07T05:34:10.970Z,67.30
2024-01-07T05:36:37.936Z,67.44
2024-01-07T05:39:05.197Z,67.43
2024-01-07T05:41:31.945Z,66.62
2024-01-07T05:43:58.688Z,67.61
2024-01-07T05:46:25.553Z,67.46
2024-01-07T05:48:52.444Z,67.59
2024-01-07T05:51:19.214Z,66.77
2024-01-07T05:53:47.217Z,68.15
2024-01-07T05:56:14.333Z,69.13
2024-01-07T05:58:41.445Z,68.67
2024-01-07T06:01:09.781Z,68.21
2024-01-07T06:03:37.280Z,68.08
2024-01-07T06:06:04.667Z,67.38
2024-01-07T06:08:31.477Z,67.56
2024-01-07T06:10:58.386Z,67.52
2024-01-07T06:13:25.176Z,68.00
2024-01-07T06:15:52.906Z,68.07
2024-01-07T06:18:19.850Z,69.17
2024-01-07T06:20:46.735Z,67.85
2024-01-07T06:23:13.688Z,68.37
2024-01-07T06:25:40.666Z,67.37
2024-01-07T06:28:08.794Z,66.83
2024-01-07T06:30:35.626Z,67.08
2024-01-07T06:33:02.901Z,67.57
2024-01-07T06:35:29.806Z,68.41
2024-01-07T06:37:56.552Z,69.02
2024-01-07T06:40:24.143Z,68.42
2024-01-07T06:42:50.959Z,68.76
2024-01-07T06:45:18.709Z,67.92
2024-01-07T06:47:45.880Z,69.84
2024-01-07T06:50:12.960Z,68.57
2024-01-07T06:52:39.897Z,68.26
2024-01-07T06:55:07.020Z,66.68
2024-01-07T06:57:33.934Z,67.50
2024-01-07T07:00:00.935Z,67.95
2024-01-07T07:02:27.670Z,67.61
2024-01-07T07:04:54.663Z,67.11
2024-01-07T07:07:21.506Z,67.38
2024-01-07T07:09:48.566Z,68.43
2024-01-07T07:12:15.370Z,67.29
2024-01-07T07:14:42.360Z,66.68
2024-01-07T07:17:09.324Z,67.40
2024-01-07T07:19:36.410Z,66.98
2024-01-07T07:22:03.368Z,68.10
2024-01-07T07:24:30.361Z,66.41
2024-01-07T07:26:57.183Z,66.92
2024-01-07T07:29:24.049Z,67.07
2024-01-07T07:31:50.978Z,69.32
2024-01-07T07:34:17.871Z,67.04
2024-01-07T07:36:46.246Z,67.49
2024-01-07T07:39:14.827Z,67.43
2024-01-07T07:41:42.026Z,65.92
2024-01-07T07:44:09.815Z,67.26
2024-01-07T07:46:36.689Z,67.00
2024-01-07T07:49:03.819Z,67.89
2024-01-07T07:51:31.420Z,67.98
2024-01-07T07:53:58.574Z,67.51
2024-01-07T07:56:25.394Z,67.58
2024-01-07T07:58:52.129Z,66.43
2024-01-07T08:01:19.793Z,66.97
2024-01-07T08:03:47.006Z,66.30
2024-01-07T08:06:13.758Z,66.64
2024-01-07T08:08:40.723Z,67.09
2024-01-07T08:11:09.965Z,66.76
2024-01-07T08:13:38.293Z,64.78
2024-01-07T08:16:09.711Z,67.13
2024-01-07T08:18:36.830Z,66.82
2024-01-07T08:21:04.313Z,66.64
2024-01-07T08:23:31.265Z,65.38
2024-01-07T08:25:58.050Z,64.96
2024-01-07T08:28:25.138Z,64.08
2024-01-07T08:30:54.659Z,65.38
2024-01-07T08:33:22.188Z,66.31
2024-01-07T08:35:49.185Z,65.73
2024-01-07T08:38:16.125Z,65.28
2024-01-07T08:40:42.981Z,65.34
2024-01-07T08:43:09.993Z,64.26
2024-01-07T08:45:38.257Z,63.47
2024-01-07T08:48:05.685Z,63.67
2024-01-07T08:50:32.786Z,64.79
2024-01-07T08:53:00.818Z,64.53
2024-01-07T08:55:29.328Z,64.85
2024-01-07T08:57:56.508Z,64.91
2024-01-07T09:00:27.130Z,63.17
2024-01-07T09:02:54.297Z,62.49
2024-01-07T09:05:21.206Z,62.47
2024-01-07T09:07:48.048Z,62.93
2024-01-07T09:10:15.104Z,64.46
2024-01-07T09:12:42.837Z,63.28
2024-01-07T09:15:09.577Z,63.94
2024-01-07T09:17:40.216Z,64.12
2024-01-07T09:20:09.823Z,63.85
2024-01-07T09:22:36.947Z,63.24
2024-01-07T09:25:05.029Z,64.50
2024-01-07T09:27:32.619Z,63.54
2024-01-07T09:29:59.822Z,64.87
2024-01-07T09:32:26.803Z,64.49
2024-01-07T09:34:54.754Z,63.76
2024-01-07T09:37:22.050Z,63.69
2024-01-07T09:39:50.117Z,63.83
2024-01-07T09:42:20.403Z,63.57
2024-01-07T09:44:47.998Z,63.21
2024-01-07T09:47:16.559Z,63.28
2024-01-07T09:49:44.529Z,63.81
2024-01-07T09:52:13.270Z,62.90
2024-01-07T09:54:42.355Z,63.65
2024-01-07T09:57:09.547Z,63.85
2024-01-07T09:59:38.014Z,64.08
2024-01-07T10:02:05.628Z,63.47
2024-01-07T10:04:32.970Z,62.57
2024-01-07T10:07:00.427Z,63.59
2024-01-07T10:09:31.802Z,62.08
2024-01-07T10:11:58.763Z,63.44
2024-01-07T10:14:27.637Z,63.21
2024-01-07T10:16:55.945Z,62.47
2024-01-07T10:19:24.573Z,61.67
2024-01-07T10:22:07.505Z,63.41
2024-01-07T10:24:39.683Z,63.03
2024-01-07T10:27:07.751Z,63.11
2024-01-07T10:29:35.410Z,62.42
2024-01-07T10:32:07.548Z,61.63
2024-01-07T10:34:37.608Z,61.63
2024-01-07T10:37:06.820Z,61.95
2024-01-07T10:39:33.909Z,61.47
2024-01-07T10:42:01.155Z,61.19
2024-01-07T10:44:30.538Z,60.93
2024-01-07T10:46:58.382Z,61.09
2024-01-07T10:49:28.419Z,61.65
2024-01-07T10:52:12.252Z,62.17
2024-01-07T10:54:41.350Z,60.59
2024-01-07T10:57:17.502Z,59.98
2024-01-07T10:59:46.323Z,60.47
2024-01-07T11:02:14.825Z,60.73
2024-01-07T11:04:51.667Z,60.29
2024-01-07T11:07:38.926Z,58.72
2024-01-07T11:10:38.697Z,58.38
2024-01-07T11:13:09.944Z,58.62
2024-01-07T11:15:49.760Z,57.58
2024-01-07T11:18:27.132Z,58.67
2024-01-07T11:20:54.618Z,58.47
2024-01-07T11:23:41.241Z,57.26
2024-01-07T11:26:10.786Z,57.11
2024-01-07T11:29:04.014Z,58.10
2024-01-07T11:31:40.456Z,58.88
2024-01-07T11:34:08.250Z,58.53
2024-01-07T11:36:39.507Z,58.48
2024-01-07T11:39:10.972Z,59.36
2024-01-07T11:41:40.650Z,58.47
2024-01-07T11:44:12.135Z,57.62
2024-01-07T11:46:39.532Z,57.92
2024-01-07T11:49:06.823Z,57.81
2024-01-07T11:51:34.083Z,57.37
2024-01-07T11:54:02.105Z,57.89
2024-01-07T11:56:30.054Z,56.96
2024-01-07T11:58:57.866Z,57.41
2024-01-07T12:01:26.906Z,57.25
2024-01-07T12:03:54.589Z,57.48
2024-01-07T12:06:21.493Z,55.65
2024-01-07T12:08:48.607Z,56.44
2024-01-07T12:11:17.638Z,56.53
2024-01-07T12:13:45.112Z,57.86
2024-01-07T12:16:12.417Z,56.93
2024-01-07T12:18:40.673Z,57.33
2024-01-07T12:21:07.973Z,57.08
2024-01-07T12:23:41.636Z,57.43
2024-01-07T12:26:14.000Z,55.75
2024-01-07T12:28:41.022Z,56.04
2024-01-07T12:31:09.314Z,55.45
2024-01-07T12:33:39.779Z,56.08
2024-01-07T12:36:08.521Z,56.58
2024-01-07T12:38:39.069Z,57.36
2024-01-07T12:41:06.441Z,57.27
2024-01-07T12:43:33.773Z,57.80
2024-01-07T12:46:06.375Z,57.49
2024-01-07T12:48:34.007Z,57.05
2024-01-07T12:51:02.456Z,56.31
2024-01-07T12:53:30.082Z,57.13
2024-01-07T12:55:57.287Z,55.90
2024-01-07T12:58:24.300Z,56.66
2024-01-07T13:00:51.551Z,57.06
2024-01-07T13:03:19.178Z,56.23
2024-01-07T13:05:47.410Z,56.25
2024-01-07T13:08:15.035Z,56.76
2024-01-07T13:10:41.871Z,55.80
2024-01-07T13:13:15.446Z,55.87
2024-01-07T13:15:44.350Z,56.25
2024-01-07T13:18:13.417Z,57.14
2024-01-07T13:20:41.759Z,57.33
2024-01-07T13:23:08.744Z,56.79
2024-01-07T13:25:35.628Z,57.63
2024-01-07T13:28:02.874Z,56.09
2024-01-07T13:30:29.843Z,57.31
2024-01-07T13:32:58.680Z,55.56
2024-01-07T13:35:26.607Z,56.53
2024-01-07T13:37:53.584Z,55.93
2024-01-07T13:40:20.643Z,56.81
2024-01-07T13:42:52.452Z,56.55
2024-01-07T13:45:24.678Z,56.48
2024-01-07T13:47:52.047Z,56.58
2024-01-07T13:50:19.217Z,56.61
2024-01-07T13:52:46.102Z,55.03
2024-01-07T13:55:14.672Z,54.85
2024-01-07T13:57:43.387Z,55.78
2024-01-07T14:00:11.247Z,56.91
2024-01-07T14:02:39.304Z,56.82
2024-01-07T14:05:08.217Z,56.03
2024-01-07T14:07:35.924Z,55.78
2024-01-07T14:10:05.954Z,55.41
2024-01-07T14:12:33.239Z,55.36
2024-01-07T14:15:00.204Z,55.38
2024-01-07T14:17:27.823Z,54.57
2024-01-07T14:19:55.097Z,54.41
2024-01-07T14:22:22.642Z,54.33
2024-01-07T14:24:50.343Z,54.59
2024-01-07T14:27:17.325Z,54.24
2024-01-07T14:29:44.651Z,54.54
2024-01-07T14:32:12.006Z,54.35
2024-01-07T14:34:45.551Z,54.17
2024-01-07T14:37:13.205Z,53.45
2024-01-07T14:39:40.836Z,53.62
2024-01-07T14:42:07.939Z,54.05
2024-01-07T14:44:43.837Z,53.68
2024-01-07T14:47:15.955Z,55.11
2024-01-07T14:49:43.665Z,55.11
2024-01-07T14:52:11.115Z,55.53
2024-01-07T14:54:38.727Z,55.51
2024-01-07T14:57:08.067Z,54.70
2024-01-07T14:59:37.109Z,55.27
2024-01-07T15:02:04.690Z,56.95
2024-01-07T15:04:32.277Z,56.31
2024-01-07T15:07:00.199Z,55.68
2024-01-07T15:09:27.405Z,54.90
2024-01-07T15:11:55.586Z,56.95
2024-01-07T15:14:22.708Z,56.99
2024-01-07T15:16:56.040Z,56.14
2024-01-07T15:19:24.146Z,55.93
2024-01-07T15:21:51.457Z,56.33
2024-01-07T15:24:18.444Z,56.54
2024-01-07T15:26:45.331Z,56.74
2024-01-07T15:29:12.396Z,57.13
2024-01-07T15:31:39.725Z,57.03
2024-01-07T15:34:06.782Z,56.59
2024-01-07T15:36:34.956Z,57.21
2024-01-07T15:39:04.221Z,58.20
2024-01-07T15:41:31.691Z,57.41
2024-01-07T15:44:00.273Z,57.55
2024-01-07T15:46:27.280Z,58.55
2024-01-07T15:48:54.446Z,57.43
2024-01-07T15:51:22.523Z,57.95
2024-01-07T15:53:49.483Z,57.45
2024-01-07T15:56:17.518Z,57.86
2024-01-07T15:58:44.267Z,58.62
2024-01-07T16:01:11.199Z,58.69
2024-01-07T16:03:38.116Z,58.79
2024-01-07T16:06:05.159Z,57.14
2024-01-07T16:08:33.315Z,58.05
2024-01-07T16:11:00.902Z,58.61
2024-01-07T16:13:29.679Z,58.44
2024-01-07T16:15:56.822Z,57.11
2024-01-07T16:18:23.840Z,57.52
2024-01-07T16:20:51.032Z,57.74
2024-01-07T16:23:17.860Z,58.43
2024-01-07T16:25:44.840Z,58.29
2024-01-07T16:28:13.192Z,59.34
2024-01-07T16:30:40.391Z,59.37
2024-01-07T16:33:09.819Z,58.15
2024-01-07T16:35:41.318Z,58.01
2024-01-07T16:38:09.411Z,57.42
2024-01-07T16:40:37.121Z,58.20
2024-01-07T16:43:05.374Z,58.55
2024-01-07T16:45:32.368Z,58.09
2024-01-07T16:48:01.093Z,58.12
2024-01-07T16:50:30.312Z,57.92
2024-01-07T16:52:58.877Z,56.37
2024-01-07T16:55:25.531Z,56.40
2024-01-07T16:57:52.399Z,57.24
2024-01-07T17:00:20.543Z,58.16
2024-01-07T17:02:49.465Z,57.53
2024-01-07T17:05:16.820Z,56.97
2024-01-07T17:07:44.042Z,58.45
2024-01-07T17:10:12.106Z,58.02
2024-01-07T17:12:39.002Z,57.75
2024-01-07T17:15:06.545Z,58.96
2024-01-07T17:17:34.418Z,59.09
2024-01-07T17:20:01.962Z,58.40
2024-01-07T17:22:29.384Z,59.19
2024-01-07T17:24:56.221Z,59.28
2024-01-07T17:27:23.646Z,58.61
2024-01-07T17:29:51.293Z,58.47
2024-01-07T17:32:23.660Z,57.90
2024-01-07T17:34:50.808Z,58.67
2024-01-07T17:37:18.030Z,58.68
2024-01-07T17:39:45.961Z,59.04
2024-01-07T17:42:12.892Z,58.75
2024-01-07T17:44:41.644Z,59.29
2024-01-07T17:47:13.072Z,57.62
2024-01-07T17:49:40.524Z,57.95
2024-01-07T17:52:08.941Z,57.96
2024-01-07T17:54:38.826Z,58.47
2024-01-07T17:57:05.984Z,59.45
2024-01-07T17:59:35.975Z,57.83
2024-01-07T18:02:04.068Z,57.77
2024-01-07T18:04:30.868Z,58.74
2024-01-07T18:06:58.346Z,58.21
2024-01-07T18:09:26.223Z,57.67
2024-01-07T18:11:53.181Z,58.25
2024-01-07T18:14:21.822Z,58.49
2024-01-07T18:16:49.335Z,58.13
2024-01-07T18:19:16.755Z,58.85
2024-01-07T18:21:47.425Z,57.97
2024-01-07T18:24:16.634Z,57.77
2024-01-07T18:26:43.666Z,57.37
2024-01-07T18:29:12.778Z,57.23
2024-01-07T18:31:43.282Z,57.25
2024-01-07T18:34:10.534Z,56.50
2024-01-07T18:36:37.266Z,57.73
2024-01-07T18:39:07.125Z,58.08
2024-01-07T18:41:34.139Z,57.15
2024-01-07T18:44:01.210Z,57.62
2024-01-07T18:46:28.080Z,57.80
2024-01-07T18:48:55.008Z,56.90
2024-01-07T18:51:21.826Z,57.25
2024-01-07T18:53:48.529Z,58.73
2024-01-07T18:56:16.714Z,58.23
2024-01-07T18:58:44.242Z,58.48
2024-01-07T19:01:11.182Z,56.98
2024-01-07T19:03:38.411Z,58.51
2024-01-07T19:06:05.658Z,58.39
2024-01-07T19:08:32.656Z,58.91
2024-01-07T19:10:59.611Z,58.22
2024-01-07T19:13:27.120Z,58.54
2024-01-07T19:15:54.323Z,57.96
2024-01-07T19:18:21.410Z,58.32
2024-01-07T19:20:49.004Z,58.31
2024-01-07T19:23:16.167Z,57.98
2024-01-07T19:25:43.319Z,58.17
2024-01-07T19:28:12.460Z,57.73
2024-01-07T19:30:40.180Z,58.54
2024-01-07T19:33:07.058Z,58.66
2024-01-07T19:35:40.871Z,57.78
2024-01-07T19:38:08.828Z,59.19
2024-01-07T19:40:40.097Z,59.41
2024-01-07T19:43:07.202Z,59.54
2024-01-07T19:45:33.909Z,58.73
2024-01-07T19:48:02.225Z,57.43
2024-01-07T19:50:29.602Z,57.27
2024-01-07T19:52:56.666Z,58.43
2024-01-07T19:55:23.964Z,57.57
2024-01-07T19:57:51.014Z,58.30
2024-01-07T20:00:19.285Z,58.07
2024-01-07T20:02:50.305Z,58.71
2024-01-07T20:05:18.950Z,58.15
2024-01-07T20:07:46.023Z,58.78
2024-01-07T20:10:13.144Z,58.05
2024-01-07T20:12:40.040Z,57.93
2024-01-07T20:15:08.984Z,57.66
2024-01-07T20:17:37.340Z,58.18
2024-01-07T20:20:04.819Z,58.61
2024-01-07T20:22:33.959Z,58.76
2024-01-07T20:25:00.659Z,59.57
2024-01-07T20:27:27.992Z,58.59
2024-01-07T20:29:56.287Z,57.38
2024-01-07T20:32:25.035Z,58.68
2024-01-07T20:34:53.846Z,58.54
2024-01-07T20:37:22.533Z,58.55
2024-01-07T20:39:49.682Z,58.13
2024-01-07T20:42:27.441Z,58.36
2024-01-07T20:45:06.294Z,56.40
2024-01-07T20:47:33.729Z,56.89
2024-01-07T20:50:00.517Z,57.49
2024-01-07T20:52:27.416Z,58.54
2024-01-07T20:54:54.540Z,57.69
2024-01-07T20:57:22.742Z,58.85
2024-01-07T20:59:52.146Z,59.32
2024-01-07T21:02:19.356Z,59.37
2024-01-07T21:04:47.161Z,58.88
2024-01-07T21:07:14.683Z,58.26
2024-01-07T21:09:43.741Z,58.78
2024-01-07T21:12:10.699Z,58.97
2024-01-07T21:14:37.826Z,59.76
2024-01-07T21:17:04.896Z,59.57
2024-01-07T21:19:31.766Z,58.96
2024-01-07T21:21:58.682Z,58.51
2024-01-07T21:24:25.462Z,58.64
2024-01-07T21:26:53.259Z,59.73
2024-01-07T21:29:20.684Z,60.05
2024-01-07T21:31:50.522Z,60.26
2024-01-07T21:34:17.779Z,58.37
2024-01-07T21:36:44.702Z,58.25
2024-01-07T21:39:11.512Z,58.88
2024-01-07T21:41:43.894Z,58.13
2024-01-07T21:44:12.066Z,59.07
2024-01-07T21:46:50.216Z,59.05
2024-01-07T21:49:18.218Z,58.93
2024-01-07T21:51:45.783Z,58.37
2024-01-07T21:54:12.614Z,58.26
2024-01-07T21:56:39.687Z,58.96
2024-01-07T21:59:06.689Z,59.38
2024-01-07T22:01:33.768Z,58.98
2024-01-07T22:04:00.580Z,59.43
2024-01-07T22:06:27.933Z,59.38
2024-01-07T22:08:54.980Z,60.43
2024-01-07T22:11:22.001Z,58.77
2024-01-07T22:13:48.842Z,58.42
2024-01-07T22:16:16.302Z,57.96
2024-01-07T22:18:43.480Z,57.73
2024-01-07T22:21:19.517Z,57.25
2024-01-07T22:23:47.563Z,58.03
2024-01-07T22:26:15.450Z,57.99
2024-01-07T22:28:44.141Z,59.23
2024-01-07T22:31:11.403Z,58.63
2024-01-07T22:33:38.440Z,59.33
2024-01-07T22:36:05.671Z,59.38
2024-01-07T22:38:34.001Z,59.13
2024-01-07T22:41:01.020Z,59.09
2024-01-07T22:43:29.005Z,58.36
2024-01-07T22:45:55.772Z,59.16
2024-01-07T22:48:22.940Z,60.17
2024-01-07T22:50:51.523Z,59.85
2024-01-07T22:53:19.155Z,59.96
2024-01-07T22:55:46.728Z,59.37
2024-01-07T22:58:13.719Z,59.57
2024-01-07T23:00:41.288Z,59.14
2024-01-07T23:03:09.851Z,59.18
2024-01-07T23:05:39.525Z,57.92
2024-01-07T23:08:07.064Z,57.88
2024-01-07T23:10:33.666Z,58.46
2024-01-07T23:13:00.891Z,58.35
2024-01-07T23:15:28.193Z,58.27
2024-01-07T23:17:55.111Z,58.79
2024-01-07T23:20:22.122Z,58.22
2024-01-07T23:22:48.985Z,57.71
2024-01-07T23:25:15.961Z,57.00
2024-01-07T23:27:42.952Z,57.78
2024-01-07T23:30:10.358Z,58.14
2024-01-07T23:32:37.367Z,58.81
2024-01-07T23:35:05.081Z,58.77
2024-01-07T23:37:32.002Z,58.02
2024-01-07T23:39:58.961Z,58.09
2024-01-07T23:42:25.892Z,58.58
2024-01-07T23:44:52.711Z,57.50
2024-01-07T23:47:19.846Z,57.76
2024-01-07T23:49:46.945Z,58.16
2024-01-07T23:52:13.744Z,59.07
2024-01-07T23:54:40.543Z,58.95
2024-01-07T23:57:07.622Z,57.47
2024-01-07T23:59:34.499Z,57.92
